Главная страница
METAR-TAF:

METAR-TAF

Аэропорты :

Савонлинна, Финляндия

широта: 61-57N, долгота: 028-57E, высота над уровнем моря: 95 м

Текущие метеонаблюдения

Эта сводка был подготовлена 30 минут назад, в 19:50 UTC
Ветер 3 Узел от юго-западный
Температура 11°C
Влажность 87%
Давление 1013 hPa
Видимость 10 км и более
Нет облачности ниже 1500 м, и нет кучево-дождевой облачности

METAR: EFSA 131950Z AUTO 22003KT CAVOK 11/09 Q1013

Время: 23:20 (20:20 UTC)

Прогноз

Эта сводка был подготовлена 5 часа и 57 минут назад, в 14:23 UTC
Прогноз действительный с 13-го 15 UTC до 13-го 18 UTC
Ветер 7 Узел от юго-западный
Видимость 10 км и более
Нет облачности ниже 1500 м, и нет кучево-дождевой облачности
временами
С 13-го 15 UTC до 13-го 17 UTC
небольшая облачность на высоте 4000 фута, Кучево-дождевые.
Вероятность 30% :
временами
С 13-го 15 UTC до 13-го 17 UTC
ливневые дожди,

TAF: EFSA 131423Z 1315/1318 23007KT CAVOK TEMPO 1315/1317 FEW040CB PROB30 TEMPO 1315/1317 SHRA

Метеонаблюдения и прогнозы для более 4000 аэропортов (сводки METAR и TAF).

Имеющиеся станции представлены на карте желтыми и красными точками.

Чтобы увидеть название станции, наведите на нее мышь.

Затем щелкните, чтобы увидеть метеонаблюдения и метеопрогнозы.

Управление картой: чтобы увеличить масштаб, щелкните зеленые кнопки с черным крестиком; чтобы уменьшить масштаб, щелкните зеленую кнопку с тире; для просмотра соседних карт щелкайте зеленые стрелки.


METAR-TAF: